createdAt,value
2022-11-29T00:01:04.315Z,100474.34
2022-11-29T00:03:31.233Z,100475.25
2022-11-29T00:06:05.950Z,100466.91
2022-11-29T00:08:32.541Z,100472.53
2022-11-29T00:11:04.454Z,100472.94
2022-11-29T00:13:31.009Z,100465.75
2022-11-29T00:16:05.290Z,100468.16
2022-11-29T00:18:32.098Z,100465.03
2022-11-29T00:20:59.535Z,100469.06
2022-11-29T00:23:26.424Z,100469.75
2022-11-29T00:25:53.576Z,100473.22
2022-11-29T00:28:20.124Z,100474.13
2022-11-29T00:30:47.272Z,100477.75
2022-11-29T00:33:13.855Z,100469.16
2022-11-29T00:35:40.816Z,100464.88
2022-11-29T00:38:07.678Z,100471.28
2022-11-29T00:40:34.243Z,100477.03
2022-11-29T00:43:01.641Z,100482.13
2022-11-29T00:45:28.173Z,100473.25
2022-11-29T00:47:54.757Z,100467.91
2022-11-29T00:50:21.573Z,100474.13
2022-11-29T00:52:48.175Z,100478.63
2022-11-29T00:55:14.964Z,100468.44
2022-11-29T00:57:41.531Z,100474.91
2022-11-29T01:00:08.744Z,100474.91
2022-11-29T01:02:35.329Z,100473.78
2022-11-29T01:05:01.883Z,100473.78
2022-11-29T01:07:28.457Z,100471.00
2022-11-29T01:09:54.987Z,100466.19
2022-11-29T01:12:21.525Z,100468.59
2022-11-29T01:14:48.213Z,100472.22
2022-11-29T01:17:15.310Z,100468.41
2022-11-29T01:19:45.235Z,100477.91
2022-11-29T01:22:16.258Z,100484.28
2022-11-29T01:24:43.123Z,100478.63
2022-11-29T01:27:09.928Z,100470.75
2022-11-29T01:29:36.849Z,100475.13
2022-11-29T01:32:03.567Z,100472.16
2022-11-29T01:34:30.493Z,100472.75
2022-11-29T01:36:57.030Z,100481.97
2022-11-29T01:39:23.592Z,100485.03
2022-11-29T01:41:50.155Z,100478.31
2022-11-29T01:44:16.592Z,100476.44
2022-11-29T01:46:46.309Z,100483.06
2022-11-29T01:49:16.919Z,100481.91
2022-11-29T01:51:48.399Z,100484.09
2022-11-29T01:54:15.217Z,100486.22
2022-11-29T01:56:45.038Z,100485.84
2022-11-29T01:59:15.613Z,100481.19
2022-11-29T02:01:42.663Z,100481.91
2022-11-29T02:04:09.778Z,100484.81
2022-11-29T02:06:37.443Z,100486.53
2022-11-29T02:09:04.788Z,100489.47
2022-11-29T02:11:52.113Z,100480.47
2022-11-29T02:14:21.720Z,100480.22
2022-11-29T02:16:57.029Z,100482.56
2022-11-29T02:19:45.324Z,100493.91
2022-11-29T02:22:20.314Z,100487.34
2022-11-29T02:25:05.076Z,100486.28
2022-11-29T02:27:34.289Z,100494.66
2022-11-29T02:30:08.953Z,100489.34
2022-11-29T02:33:25.646Z,100495.34
2022-11-29T02:36:15.569Z,100497.16
2022-11-29T02:39:00.494Z,100499.53
2022-11-29T02:41:47.284Z,100503.94
2022-11-29T02:44:39.124Z,100505.66
2022-11-29T02:47:47.423Z,100507.63
2022-11-29T02:50:49.112Z,100515.59
2022-11-29T02:53:24.758Z,100511.69
2022-11-29T02:56:08.156Z,100513.78
2022-11-29T02:58:47.472Z,100517.34
2022-11-29T03:01:23.825Z,100513.28
2022-11-29T03:04:04.403Z,100513.81
2022-11-29T03:07:09.616Z,100514.38
2022-11-29T03:09:55.750Z,100519.91
2022-11-29T03:12:41.085Z,100529.56
2022-11-29T03:15:19.801Z,100522.81
2022-11-29T03:18:01.032Z,100526.09
2022-11-29T03:21:10.129Z,100526.34
2022-11-29T03:23:43.211Z,100522.59
2022-11-29T03:26:31.723Z,100528.63
2022-11-29T03:29:29.244Z,100535.72
2022-11-29T03:32:14.426Z,100527.22
2022-11-29T03:35:02.266Z,100536.38
2022-11-29T03:37:44.135Z,100533.81
2022-11-29T03:40:18.823Z,100539.22
2022-11-29T03:42:58.897Z,100543.22
2022-11-29T03:45:32.616Z,100550.66
2022-11-29T03:48:20.657Z,100553.00
2022-11-29T03:51:08.162Z,100541.03
2022-11-29T03:54:03.292Z,100550.72
2022-11-29T03:56:33.225Z,100545.19
2022-11-29T03:59:37.899Z,100553.78
2022-11-29T04:02:29.216Z,100555.78
2022-11-29T04:05:40.322Z,100562.31
2022-11-29T04:08:25.136Z,100561.59
2022-11-29T04:11:36.209Z,100563.88
2022-11-29T04:14:15.897Z,100562.88
2022-11-29T04:17:12.224Z,100567.03
2022-11-29T04:20:00.302Z,100563.66
2022-11-29T04:22:44.192Z,100569.06
2022-11-29T04:25:21.058Z,100566.66
2022-11-29T04:28:01.737Z,100576.59
2022-11-29T04:30:44.890Z,100571.91
2022-11-29T04:33:24.448Z,100575.44
2022-11-29T04:36:11.221Z,100583.56
2022-11-29T04:39:08.481Z,100577.63
2022-11-29T04:41:58.547Z,100587.44
2022-11-29T04:44:41.297Z,100586.59
2022-11-29T04:47:31.388Z,100585.28
2022-11-29T04:50:11.469Z,100586.91
2022-11-29T04:52:48.300Z,100589.97
2022-11-29T04:55:27.684Z,100598.66
2022-11-29T04:58:09.125Z,100586.16
2022-11-29T05:00:50.451Z,100604.72
2022-11-29T05:03:31.944Z,100598.06
2022-11-29T05:06:18.951Z,100601.72
2022-11-29T05:09:21.655Z,100609.09
2022-11-29T05:12:04.436Z,100613.22
2022-11-29T05:14:49.292Z,100616.38
2022-11-29T05:18:03.570Z,100621.59
2022-11-29T05:20:55.585Z,100612.78
2022-11-29T05:24:11.267Z,100623.59
2022-11-29T05:29:35.191Z,100623.53
2022-11-29T05:32:28.482Z,100641.97
2022-11-29T05:35:13.694Z,100640.56
2022-11-29T05:37:49.437Z,100640.94
2022-11-29T05:40:28.341Z,100634.63
2022-11-29T05:43:06.780Z,100645.38
2022-11-29T05:45:41.215Z,100644.47
2022-11-29T05:48:24.720Z,100650.34
2022-11-29T05:51:09.701Z,100641.38
2022-11-29T05:53:51.932Z,100655.66
2022-11-29T05:56:36.780Z,100656.09
2022-11-29T05:59:08.423Z,100655.94
2022-11-29T06:01:50.829Z,100654.31
2022-11-29T06:04:28.986Z,100661.81
2022-11-29T06:07:03.327Z,100667.56
2022-11-29T06:09:48.162Z,100671.44
2022-11-29T06:12:22.932Z,100678.19
2022-11-29T06:15:17.336Z,100672.97
2022-11-29T06:18:02.766Z,100674.97
2022-11-29T06:21:02.839Z,100680.47
2022-11-29T06:23:42.493Z,100672.19
2022-11-29T06:26:44.850Z,100681.88
2022-11-29T06:29:35.224Z,100690.41
2022-11-29T06:32:26.667Z,100690.94
2022-11-29T06:35:21.025Z,100683.41
2022-11-29T06:37:55.823Z,100683.28
2022-11-29T06:40:22.873Z,100682.03
2022-11-29T06:42:49.564Z,100689.19
2022-11-29T06:45:16.464Z,100688.88
2022-11-29T06:47:48.695Z,100692.25
2022-11-29T06:50:47.557Z,100700.41
2022-11-29T06:53:29.343Z,100701.84
2022-11-29T06:56:24.556Z,100704.91
2022-11-29T06:59:18.795Z,100711.91
2022-11-29T07:01:54.581Z,100710.00
2022-11-29T07:04:32.977Z,100716.66
2022-11-29T07:06:59.892Z,100708.97
2022-11-29T07:09:33.348Z,100707.81
2022-11-29T07:12:00.636Z,100711.94
2022-11-29T07:14:27.484Z,100717.84
2022-11-29T07:16:57.619Z,100719.41
2022-11-29T07:19:36.766Z,100721.47
2022-11-29T07:22:32.316Z,100721.19
2022-11-29T07:25:09.901Z,100727.00
2022-11-29T07:28:02.086Z,100732.31
2022-11-29T07:31:07.439Z,100734.13
2022-11-29T07:33:43.921Z,100738.84
2022-11-29T07:36:22.208Z,100735.56
2022-11-29T07:39:10.142Z,100737.59
2022-11-29T07:42:00.887Z,100739.66
2022-11-29T07:44:35.829Z,100744.19
2022-11-29T07:47:02.435Z,100748.00
2022-11-29T07:49:29.040Z,100753.78
2022-11-29T07:51:56.293Z,100761.88
2022-11-29T07:54:23.457Z,100753.50
2022-11-29T07:56:50.096Z,100759.69
2022-11-29T07:59:16.697Z,100755.41
2022-11-29T08:01:43.831Z,100771.94
2022-11-29T08:04:10.377Z,100766.09
2022-11-29T08:06:37.617Z,100766.09
2022-11-29T08:09:05.712Z,100771.09
2022-11-29T08:11:32.702Z,100769.88
2022-11-29T08:14:01.062Z,100771.16
2022-11-29T08:16:28.167Z,100776.25
2022-11-29T08:18:54.947Z,100778.97
2022-11-29T08:21:21.776Z,100777.88
2022-11-29T08:23:49.698Z,100780.84
2022-11-29T08:26:17.617Z,100781.00
2022-11-29T08:28:44.701Z,100781.75
2022-11-29T08:31:13.078Z,100777.16
2022-11-29T08:33:42.278Z,100783.78
2022-11-29T08:36:15.213Z,100785.13
2022-11-29T08:38:42.063Z,100783.97
2022-11-29T08:41:11.360Z,100791.19
2022-11-29T08:43:37.954Z,100788.91
2022-11-29T08:46:05.182Z,100796.72
2022-11-29T08:48:32.244Z,100791.59
2022-11-29T08:50:58.912Z,100799.16
2022-11-29T08:53:44.732Z,100800.31
2022-11-29T08:57:04.476Z,100792.97
2022-11-29T08:59:06.037Z,100799.28
2022-11-29T09:01:32.765Z,100801.94
2022-11-29T09:03:59.388Z,100804.28
2022-11-29T09:06:28.799Z,100801.38
2022-11-29T09:08:56.523Z,100809.31
2022-11-29T09:11:25.069Z,100805.72
2022-11-29T09:13:55.690Z,100804.09
2022-11-29T09:16:25.676Z,100814.22
2022-11-29T09:18:55.767Z,100812.50
2022-11-29T09:21:25.646Z,100812.94
2022-11-29T09:23:58.621Z,100818.63
2022-11-29T09:26:27.913Z,100814.31
2022-11-29T09:28:55.519Z,100826.84
2022-11-29T09:31:22.465Z,100820.50
2022-11-29T09:33:49.903Z,100834.53
2022-11-29T09:36:16.481Z,100834.97
2022-11-29T09:38:43.047Z,100827.88
2022-11-29T09:41:33.881Z,100831.47
2022-11-29T09:44:23.646Z,100832.06
2022-11-29T09:47:00.286Z,100830.09
2022-11-29T09:49:45.397Z,100834.13
2022-11-29T09:52:36.227Z,100838.53
2022-11-29T09:55:27.725Z,100842.00
2022-11-29T09:57:56.545Z,100839.16
2022-11-29T10:00:23.532Z,100845.44
2022-11-29T10:02:52.484Z,100841.63
2022-11-29T10:05:26.387Z,100845.38
2022-11-29T10:08:08.629Z,100840.63
2022-11-29T10:10:45.774Z,100846.47
2022-11-29T10:13:25.285Z,100844.97
2022-11-29T10:16:01.406Z,100838.72
2022-11-29T10:18:45.285Z,100834.03
2022-11-29T10:21:23.507Z,100837.22
2022-11-29T10:23:57.685Z,100834.28
2022-11-29T10:26:25.904Z,100829.66
2022-11-29T10:28:57.925Z,100841.66
2022-11-29T10:31:31.365Z,100841.31
2022-11-29T10:34:07.905Z,100841.19
2022-11-29T10:36:42.263Z,100848.44
2022-11-29T10:39:21.110Z,100847.31
2022-11-29T10:41:52.803Z,100847.75
2022-11-29T10:44:20.968Z,100848.53
2022-11-29T10:46:48.079Z,100851.19
2022-11-29T10:49:18.649Z,100852.34
2022-11-29T10:51:47.048Z,100844.09
2022-11-29T10:54:37.519Z,100850.75
2022-11-29T10:57:12.618Z,100852.63
2022-11-29T10:59:39.134Z,100842.22
2022-11-29T11:02:18.753Z,100847.84
2022-11-29T11:04:47.564Z,100846.63
2022-11-29T11:07:28.513Z,100840.88
2022-11-29T11:09:57.943Z,100845.66
2022-11-29T11:12:30.404Z,100850.22
2022-11-29T11:15:16.481Z,100847.41
2022-11-29T11:17:58.856Z,100846.91
2022-11-29T11:20:29.105Z,100848.69
2022-11-29T11:23:04.405Z,100847.09
2022-11-29T11:25:35.037Z,100853.94
2022-11-29T11:28:15.398Z,100853.06
2022-11-29T11:30:51.400Z,100857.16
2022-11-29T11:33:31.279Z,100855.56
2022-11-29T11:36:06.140Z,100860.81
2022-11-29T11:38:34.942Z,100862.66
2022-11-29T11:41:22.546Z,100860.06
2022-11-29T11:43:57.149Z,100859.91
2022-11-29T11:46:44.205Z,100862.13
2022-11-29T11:49:25.383Z,100863.72
2022-11-29T11:51:52.355Z,100864.56
2022-11-29T11:54:19.997Z,100858.22
2022-11-29T11:56:46.701Z,100864.66
2022-11-29T11:59:19.926Z,100868.63
2022-11-29T12:01:46.998Z,100868.38
2022-11-29T12:04:46.508Z,100877.84
2022-11-29T12:07:38.926Z,100882.06
2022-11-29T12:10:22.255Z,100869.44
2022-11-29T12:12:50.418Z,100879.72
2022-11-29T12:15:29.415Z,100874.22
2022-11-29T12:18:01.918Z,100872.13
2022-11-29T12:21:06.421Z,100874.22
2022-11-29T12:23:52.864Z,100872.91
2022-11-29T12:26:55.916Z,100881.09
2022-11-29T12:29:19.115Z,100881.44
2022-11-29T12:31:57.555Z,100884.47
2022-11-29T12:34:29.989Z,100886.94
2022-11-29T12:37:46.507Z,100879.09
2022-11-29T12:40:57.155Z,100880.75
2022-11-29T12:43:36.232Z,100874.63
2022-11-29T12:46:26.323Z,100877.91
2022-11-29T12:48:53.264Z,100876.56
2022-11-29T12:51:48.130Z,100886.59
2022-11-29T12:54:28.263Z,100881.41
2022-11-29T12:57:14.469Z,100879.16
2022-11-29T13:00:01.139Z,100888.00
2022-11-29T13:02:43.397Z,100879.75
2022-11-29T13:05:20.216Z,100882.78
2022-11-29T13:07:55.853Z,100882.94
2022-11-29T13:10:52.622Z,100889.69
2022-11-29T13:13:42.665Z,100888.47
2022-11-29T13:16:42.358Z,100901.69
2022-11-29T13:19:13.832Z,100900.53
2022-11-29T13:22:04.221Z,100909.56
2022-11-29T13:24:42.760Z,100907.03
2022-11-29T13:27:16.295Z,100904.03
2022-11-29T13:29:43.210Z,100912.13
2022-11-29T13:32:31.831Z,100907.78
2022-11-29T13:35:05.923Z,100908.06
2022-11-29T13:37:48.421Z,100913.72
2022-11-29T13:40:59.784Z,100908.63
2022-11-29T13:43:29.155Z,100919.72
2022-11-29T13:46:14.076Z,100916.66
2022-11-29T13:48:52.489Z,100921.53
2022-11-29T13:51:29.853Z,100931.81
2022-11-29T13:53:59.646Z,100926.47
2022-11-29T13:56:33.473Z,100931.59
2022-11-29T13:59:05.608Z,100925.13
2022-11-29T14:01:44.087Z,100923.41
2022-11-29T14:04:24.505Z,100927.84
2022-11-29T14:07:02.636Z,100932.94
2022-11-29T14:09:42.528Z,100929.28
2022-11-29T14:12:37.242Z,100923.78
2022-11-29T14:15:28.181Z,100931.94
2022-11-29T14:18:01.440Z,100934.88
2022-11-29T14:20:28.698Z,100936.22
2022-11-29T14:23:04.925Z,100942.50
2022-11-29T14:25:51.164Z,100940.16
2022-11-29T14:28:18.452Z,100939.72
2022-11-29T14:30:47.029Z,100940.56
2022-11-29T14:33:38.860Z,100945.09
2022-11-29T14:36:14.522Z,100942.06
2022-11-29T14:38:58.983Z,100943.22
2022-11-29T14:41:40.826Z,100947.59
2022-11-29T14:44:29.371Z,100944.44
2022-11-29T14:47:07.949Z,100952.25
2022-11-29T14:49:41.092Z,100955.63
2022-11-29T14:52:09.523Z,100943.09
2022-11-29T14:54:54.641Z,100949.75
2022-11-29T14:57:49.633Z,100948.91
2022-11-29T15:00:42.418Z,100945.09
2022-11-29T15:03:25.083Z,100945.94
2022-11-29T15:05:59.220Z,100946.44
2022-11-29T15:08:50.061Z,100949.47
2022-11-29T15:11:33.441Z,100945.41
2022-11-29T15:14:09.597Z,100951.28
2022-11-29T15:17:00.396Z,100951.16
2022-11-29T15:19:48.415Z,100948.41
2022-11-29T15:22:26.456Z,100958.72
2022-11-29T15:25:02.184Z,100958.19
2022-11-29T15:27:29.425Z,100970.25
2022-11-29T15:29:58.884Z,100973.75
2022-11-29T15:32:30.998Z,100969.47
2022-11-29T15:34:58.806Z,100968.47
2022-11-29T15:37:40.723Z,100969.94
2022-11-29T15:40:14.261Z,100973.97
2022-11-29T15:42:53.230Z,100975.25
2022-11-29T15:45:22.680Z,100974.16
2022-11-29T15:47:49.454Z,100971.97
2022-11-29T15:50:35.622Z,100974.94
2022-11-29T15:53:12.996Z,100975.47
2022-11-29T15:55:40.090Z,100978.97
2022-11-29T15:58:09.290Z,100981.00
2022-11-29T16:00:36.753Z,100980.00
2022-11-29T16:03:23.530Z,100981.78
2022-11-29T16:06:28.510Z,100978.41
2022-11-29T16:09:01.669Z,100985.31
2022-11-29T16:11:35.973Z,100983.50
2022-11-29T16:14:11.911Z,100996.50
2022-11-29T16:16:43.200Z,100995.38
2022-11-29T16:19:16.072Z,100992.72
2022-11-29T16:21:43.304Z,100990.00
2022-11-29T16:24:20.609Z,100999.00
2022-11-29T16:26:49.715Z,100997.06
2022-11-29T16:29:28.882Z,101006.78
2022-11-29T16:31:55.734Z,101008.94
2022-11-29T16:34:33.001Z,101011.84
2022-11-29T16:37:14.305Z,101009.56
2022-11-29T16:39:46.218Z,101016.69
2022-11-29T16:42:26.519Z,101017.09
2022-11-29T16:44:58.305Z,101013.09
2022-11-29T16:48:02.945Z,101018.84
2022-11-29T16:50:51.261Z,101016.84
2022-11-29T16:53:42.881Z,101018.41
2022-11-29T16:56:14.878Z,101032.88
2022-11-29T16:59:20.559Z,101030.66
2022-11-29T17:01:31.583Z,101029.00
2022-11-29T17:03:59.945Z,101025.69
2022-11-29T17:06:27.586Z,101029.75
2022-11-29T17:08:56.835Z,101036.16
2022-11-29T17:11:23.705Z,101037.91
2022-11-29T17:13:51.178Z,101038.44
2022-11-29T17:16:21.048Z,101036.97
2022-11-29T17:18:48.505Z,101040.13
2022-11-29T17:21:30.681Z,101032.41
2022-11-29T17:23:57.796Z,101041.44
2022-11-29T17:26:24.656Z,101044.94
2022-11-29T17:28:52.223Z,101044.94
2022-11-29T17:31:25.708Z,101056.03
2022-11-29T17:34:17.138Z,101051.34
2022-11-29T17:36:46.616Z,101054.69
2022-11-29T17:39:15.509Z,101055.75
2022-11-29T17:41:42.234Z,101052.84
2022-11-29T17:44:08.803Z,101058.13
2022-11-29T17:46:36.526Z,101058.53
2022-11-29T17:49:09.119Z,101061.50
2022-11-29T17:51:54.314Z,101071.66
2022-11-29T17:54:22.355Z,101068.06
2022-11-29T17:56:49.534Z,101068.34
2022-11-29T17:59:16.713Z,101074.16
2022-11-29T18:01:43.537Z,101068.06
2022-11-29T18:04:10.225Z,101068.25
2022-11-29T18:06:39.538Z,101076.81
2022-11-29T18:09:08.671Z,101073.69
2022-11-29T18:11:46.343Z,101078.16
2022-11-29T18:14:16.556Z,101085.84
2022-11-29T18:16:45.243Z,101090.09
2022-11-29T18:19:14.397Z,101081.13
2022-11-29T18:21:42.350Z,101088.22
2022-11-29T18:24:09.979Z,101088.38
2022-11-29T18:26:37.594Z,101085.47
2022-11-29T18:29:05.934Z,101092.16
2022-11-29T18:31:35.438Z,101099.25
2022-11-29T18:34:06.791Z,101087.31
2022-11-29T18:36:36.755Z,101087.69
2022-11-29T18:39:07.145Z,101086.09
2022-11-29T18:41:34.650Z,101091.66
2022-11-29T18:44:03.232Z,101092.50
2022-11-29T18:46:32.745Z,101091.56
2022-11-29T18:49:00.980Z,101090.00
2022-11-29T18:51:29.697Z,101084.22
2022-11-29T18:53:57.710Z,101082.53
2022-11-29T18:56:26.849Z,101087.81
2022-11-29T18:58:58.346Z,101091.59
2022-11-29T19:01:28.122Z,101093.78
2022-11-29T19:04:00.581Z,101091.41
2022-11-29T19:06:39.448Z,101083.53
2022-11-29T19:09:11.521Z,101091.41
2022-11-29T19:11:38.732Z,101085.41
2022-11-29T19:14:11.976Z,101088.63
2022-11-29T19:16:41.387Z,101090.66
2022-11-29T19:19:08.556Z,101098.88
2022-11-29T19:21:35.532Z,101090.16
2022-11-29T19:24:05.358Z,101090.78
2022-11-29T19:26:32.695Z,101095.75
2022-11-29T19:29:00.637Z,101098.44
2022-11-29T19:31:27.828Z,101099.22
2022-11-29T19:33:55.605Z,101106.63
2022-11-29T19:36:25.171Z,101100.25
2022-11-29T19:38:54.332Z,101100.22
2022-11-29T19:41:24.245Z,101097.63
2022-11-29T19:43:52.267Z,101097.75
2022-11-29T19:46:24.254Z,101098.16
2022-11-29T19:48:55.695Z,101107.00
2022-11-29T19:51:23.476Z,101104.88
2022-11-29T19:53:55.149Z,101103.34
2022-11-29T19:56:23.286Z,101099.00
2022-11-29T19:58:51.246Z,101107.59
2022-11-29T20:01:24.923Z,101098.25
2022-11-29T20:03:52.579Z,101096.88
2022-11-29T20:06:19.818Z,101103.81
2022-11-29T20:08:47.436Z,101111.19
2022-11-29T20:11:20.440Z,101108.53
2022-11-29T20:13:52.812Z,101118.66
2022-11-29T20:16:22.352Z,101113.00
2022-11-29T20:18:51.343Z,101114.78
2022-11-29T20:21:24.975Z,101123.06
2022-11-29T20:23:56.535Z,101120.50
2022-11-29T20:26:24.326Z,101126.59
2022-11-29T20:28:51.252Z,101123.94
2022-11-29T20:31:21.535Z,101130.25
2022-11-29T20:33:50.771Z,101130.31
2022-11-29T20:36:36.025Z,101135.38
2022-11-29T20:39:28.884Z,101132.78
2022-11-29T20:42:20.447Z,101140.34
2022-11-29T20:44:50.124Z,101137.22
2022-11-29T20:47:19.170Z,101145.03
2022-11-29T20:49:46.885Z,101142.41
2022-11-29T20:52:28.925Z,101137.31
2022-11-29T20:54:55.941Z,101141.00
2022-11-29T20:57:24.977Z,101136.63
2022-11-29T20:59:51.701Z,101147.91
2022-11-29T21:02:22.458Z,101147.88
2022-11-29T21:04:49.391Z,101153.13
2022-11-29T21:07:16.477Z,101143.31
2022-11-29T21:09:43.212Z,101140.34
2022-11-29T21:12:12.003Z,101138.44
2022-11-29T21:14:38.987Z,101144.81
2022-11-29T21:17:06.145Z,101152.59
2022-11-29T21:19:33.051Z,101141.50
2022-11-29T21:22:16.786Z,101141.81
2022-11-29T21:24:53.353Z,101141.84
2022-11-29T21:27:30.968Z,101145.13
2022-11-29T21:29:57.932Z,101148.84
2022-11-29T21:32:26.686Z,101150.56
2022-11-29T21:34:53.373Z,101141.19
2022-11-29T21:37:24.731Z,101149.69
2022-11-29T21:39:52.380Z,101136.91
2022-11-29T21:42:19.448Z,101143.94
2022-11-29T21:44:46.690Z,101136.75
2022-11-29T21:47:13.863Z,101148.63
2022-11-29T21:49:40.558Z,101157.47
2022-11-29T21:52:07.923Z,101154.53
2022-11-29T21:54:34.523Z,101150.06
2022-11-29T21:57:01.647Z,101160.59
2022-11-29T21:59:29.017Z,101162.69
2022-11-29T22:01:56.039Z,101162.78
2022-11-29T22:04:23.139Z,101165.13
2022-11-29T22:06:50.166Z,101163.00
2022-11-29T22:09:16.689Z,101167.13
2022-11-29T22:11:43.472Z,101162.25
2022-11-29T22:14:15.515Z,101169.03
2022-11-29T22:16:52.564Z,101162.56
2022-11-29T22:19:22.016Z,101172.63
2022-11-29T22:21:51.012Z,101164.78
2022-11-29T22:24:20.237Z,101168.63
2022-11-29T22:26:47.801Z,101167.41
2022-11-29T22:29:15.286Z,101175.53
2022-11-29T22:31:43.807Z,101161.41
2022-11-29T22:34:11.686Z,101164.34
2022-11-29T22:36:38.969Z,101164.59
2022-11-29T22:39:07.592Z,101160.56
2022-11-29T22:41:35.973Z,101166.91
2022-11-29T22:44:03.059Z,101173.47
2022-11-29T22:46:30.176Z,101175.09
2022-11-29T22:48:58.281Z,101174.56
2022-11-29T22:51:33.232Z,101172.97
2022-11-29T22:54:02.715Z,101166.72
2022-11-29T22:56:32.911Z,101169.53
2022-11-29T22:58:59.487Z,101170.84
2022-11-29T23:01:28.887Z,101166.28
2022-11-29T23:03:58.676Z,101175.00
2022-11-29T23:06:30.793Z,101179.88
2022-11-29T23:08:59.445Z,101183.84
2022-11-29T23:11:28.679Z,101177.53
2022-11-29T23:13:55.803Z,101180.56
2022-11-29T23:16:25.680Z,101184.34
2022-11-29T23:18:53.990Z,101191.00
2022-11-29T23:21:23.696Z,101191.44
2022-11-29T23:23:56.012Z,101193.38
2022-11-29T23:26:43.557Z,101199.22
2022-11-29T23:29:12.888Z,101198.84
2022-11-29T23:31:40.106Z,101198.00
2022-11-29T23:34:06.934Z,101201.56
2022-11-29T23:36:34.617Z,101195.13
2022-11-29T23:39:05.549Z,101199.56
2022-11-29T23:41:33.213Z,101189.47
2022-11-29T23:43:59.794Z,101196.47
2022-11-29T23:46:26.602Z,101204.53
2022-11-29T23:48:53.254Z,101203.59
2022-11-29T23:51:20.102Z,101191.06
2022-11-29T23:53:51.311Z,101189.88
2022-11-29T23:56:18.808Z,101185.44
2022-11-29T23:58:45.712Z,101192.22
